Time;durP1;ratioP1;P1;durP2;ratioP2;P2;SDS_P1;SDS_P2;PMS_P1;PMS_P2;Temp;Humidity;BMP_temperature;BMP_pressure;BME280_temperature;BME280_humidity;BME280_pressure;Samples;Min_cycle;Max_cycle;Signal;HPM_P1;HPM_P2
2023/01/15 00:03:20;;;;;;;;;;;17.20;51.80;;;;;;10247463;28;857;-75
2023/01/15 00:08:16;;;;;;;;;;;17.20;51.80;;;;;;10246383;28;905;-75
2023/01/15 00:13:11;;;;;;;;;;;17.20;51.80;;;;;;10247397;28;1899;-75
2023/01/15 00:18:06;;;;;;;;;;;17.20;51.80;;;;;;10246748;28;877;-75
2023/01/15 00:23:02;;;;;;;;;;;17.20;51.70;;;;;;10246581;28;763;-75
2023/01/15 00:27:57;;;;;;;;;;;17.20;51.60;;;;;;10247052;28;873;-75
2023/01/15 00:32:52;;;;;;;;;;;17.20;51.60;;;;;;10246208;28;1969;-75
2023/01/15 00:37:48;;;;;;;;;;;17.20;51.60;;;;;;10245120;28;1136;-75
2023/01/15 00:42:43;;;;;;;;;;;17.20;51.60;;;;;;10245721;28;894;-75
2023/01/15 00:47:39;;;;;;;;;;;17.30;51.60;;;;;;10245111;28;830;-75
2023/01/15 00:52:34;;;;;;;;;;;17.20;51.50;;;;;;10245607;28;1971;-75
2023/01/15 00:57:29;;;;;;;;;;;17.30;51.60;;;;;;10245236;28;871;-75
2023/01/15 01:02:25;;;;;;;;;;;17.20;51.50;;;;;;10245097;28;1035;-75
2023/01/15 01:07:20;;;;;;;;;;;17.20;51.50;;;;;;10244988;28;934;-75
2023/01/15 01:12:15;;;;;;;;;;;17.20;51.50;;;;;;10244189;28;1894;-75
2023/01/15 01:17:11;;;;;;;;;;;17.20;51.40;;;;;;10244752;28;798;-75
2023/01/15 01:22:06;;;;;;;;;;;17.20;51.50;;;;;;10244591;28;794;-75
2023/01/15 01:27:02;;;;;;;;;;;17.20;51.40;;;;;;10244468;28;897;-75
2023/01/15 01:31:57;;;;;;;;;;;17.20;51.40;;;;;;10244478;28;1948;-75
2023/01/15 01:36:52;;;;;;;;;;;17.20;51.30;;;;;;10244272;28;1946;-75
2023/01/15 01:41:48;;;;;;;;;;;17.20;51.30;;;;;;10243525;28;857;-75
2023/01/15 01:46:43;;;;;;;;;;;17.20;51.20;;;;;;10244047;28;794;-75
2023/01/15 01:51:39;;;;;;;;;;;17.30;51.20;;;;;;10244528;28;770;-75
2023/01/15 01:56:34;;;;;;;;;;;17.20;51.10;;;;;;10243753;28;1910;-75
2023/01/15 02:01:29;;;;;;;;;;;17.20;51.10;;;;;;10243431;28;962;-75
2023/01/15 02:06:25;;;;;;;;;;;17.20;51.00;;;;;;10244261;28;800;-75
2023/01/15 02:11:20;;;;;;;;;;;17.30;51.00;;;;;;10242999;28;1191;-75
2023/01/15 02:16:15;;;;;;;;;;;17.30;50.80;;;;;;10243366;28;1898;-75
2023/01/15 02:21:11;;;;;;;;;;;17.30;50.80;;;;;;10243428;28;779;-75
2023/01/15 02:26:06;;;;;;;;;;;17.20;50.80;;;;;;10243914;28;872;-75
2023/01/15 02:31:02;;;;;;;;;;;17.20;50.80;;;;;;10243314;28;853;-75
2023/01/15 02:35:59;;;;;;;;;;;17.20;50.80;;;;;;10243942;28;1973;-75
2023/01/15 02:40:55;;;;;;;;;;;17.20;50.60;;;;;;10243672;28;954;-75
2023/01/15 02:45:50;;;;;;;;;;;17.20;50.70;;;;;;10249763;28;1219;-75
2023/01/15 02:50:45;;;;;;;;;;;17.20;50.50;;;;;;10250100;28;1087;-75
2023/01/15 02:55:41;;;;;;;;;;;17.20;50.30;;;;;;10249920;28;1910;-75
2023/01/15 03:00:36;;;;;;;;;;;17.20;50.50;;;;;;10250424;28;859;-75
2023/01/15 03:05:31;;;;;;;;;;;17.20;50.40;;;;;;10249834;28;859;-75
2023/01/15 03:10:27;;;;;;;;;;;17.20;50.40;;;;;;10249506;28;845;-75
2023/01/15 03:20:36;;;;;;;;;;;17.10;50.20;;;;;;10248886;28;608;-75
2023/01/15 03:25:32;;;;;;;;;;;17.10;50.30;;;;;;10248924;28;965;-75
2023/01/15 03:30:27;;;;;;;;;;;17.10;50.20;;;;;;10248677;28;964;-75
2023/01/15 03:35:22;;;;;;;;;;;17.10;50.20;;;;;;10248024;28;1890;-75
2023/01/15 03:40:18;;;;;;;;;;;17.10;50.10;;;;;;10249222;28;790;-75
2023/01/15 03:45:13;;;;;;;;;;;17.10;50.20;;;;;;10248855;28;1032;-75
2023/01/15 03:50:08;;;;;;;;;;;17.10;50.20;;;;;;10248004;28;784;-75
2023/01/15 03:55:04;;;;;;;;;;;17.10;50.10;;;;;;10248232;28;1906;-75
2023/01/15 03:59:59;;;;;;;;;;;17.20;50.10;;;;;;10247811;28;857;-75
2023/01/15 04:04:55;;;;;;;;;;;17.20;49.90;;;;;;10247414;28;790;-75
2023/01/15 04:09:50;;;;;;;;;;;17.20;50.00;;;;;;10247794;28;871;-75
2023/01/15 04:14:45;;;;;;;;;;;17.20;50.10;;;;;;10246948;28;1894;-75
2023/01/15 04:19:43;;;;;;;;;;;17.20;50.10;;;;;;10245640;28;762;-75
2023/01/15 04:24:38;;;;;;;;;;;17.10;50.00;;;;;;10246630;28;776;-75
2023/01/15 04:29:33;;;;;;;;;;;17.20;49.80;;;;;;10245853;28;947;-75
2023/01/15 04:34:29;;;;;;;;;;;17.10;49.80;;;;;;10246231;28;1961;-75
2023/01/15 04:39:24;;;;;;;;;;;17.10;49.80;;;;;;10246864;28;908;-75
2023/01/15 04:44:19;;;;;;;;;;;17.10;49.70;;;;;;10245835;28;778;-75
2023/01/15 04:49:15;;;;;;;;;;;17.10;49.50;;;;;;10245714;28;778;-75
2023/01/15 04:54:10;;;;;;;;;;;17.00;49.70;;;;;;10245562;28;1977;-75
2023/01/15 04:59:05;;;;;;;;;;;17.10;49.70;;;;;;10245362;28;819;-75
2023/01/15 05:04:01;;;;;;;;;;;17.10;49.70;;;;;;10245340;28;940;-75
2023/01/15 05:08:56;;;;;;;;;;;17.10;49.50;;;;;;10244398;28;947;-75
2023/01/15 05:13:52;;;;;;;;;;;17.10;49.60;;;;;;10244818;28;1902;-75
2023/01/15 05:18:47;;;;;;;;;;;17.10;49.50;;;;;;10244710;28;975;-75
2023/01/15 05:23:42;;;;;;;;;;;17.10;49.30;;;;;;10244658;28;856;-75
2023/01/15 05:28:38;;;;;;;;;;;17.10;49.40;;;;;;10244459;28;791;-75
2023/01/15 05:33:33;;;;;;;;;;;17.20;49.30;;;;;;10244298;28;1902;-75
2023/01/15 05:38:29;;;;;;;;;;;17.20;49.20;;;;;;10244234;28;878;-75
2023/01/15 05:43:25;;;;;;;;;;;17.20;49.20;;;;;;10244109;28;1096;-75
2023/01/15 05:48:20;;;;;;;;;;;17.20;49.30;;;;;;10244013;28;876;-75
2023/01/15 05:53:16;;;;;;;;;;;17.20;49.20;;;;;;10243899;28;1983;-75
2023/01/15 05:58:11;;;;;;;;;;;17.20;49.60;;;;;;10243849;28;861;-75
2023/01/15 06:03:06;;;;;;;;;;;17.20;49.10;;;;;;10244354;28;806;-75
2023/01/15 06:08:02;;;;;;;;;;;17.20;49.00;;;;;;10244297;28;885;-74
2023/01/15 06:12:57;;;;;;;;;;;17.30;49.00;;;;;;10242863;28;1965;-75
2023/01/15 06:17:53;;;;;;;;;;;17.30;48.90;;;;;;10248221;28;1187;-69
2023/01/15 06:22:48;;;;;;;;;;;17.50;48.80;;;;;;10252222;28;860;-68
2023/01/15 06:27:43;;;;;;;;;;;17.60;49.20;;;;;;10250810;28;795;-69
2023/01/15 06:32:39;;;;;;;;;;;17.60;49.30;;;;;;10250525;28;1898;-70
2023/01/15 06:37:34;;;;;;;;;;;17.60;49.30;;;;;;10250997;28;893;-70
2023/01/15 06:47:44;;;;;;;;;;;17.70;49.00;;;;;;10249488;28;632;-69
2023/01/15 06:52:39;;;;;;;;;;;17.70;48.80;;;;;;10250439;28;1972;-69
2023/01/15 06:57:35;;;;;;;;;;;17.70;48.80;;;;;;10249736;28;900;-69
2023/01/15 07:02:30;;;;;;;;;;;17.80;48.40;;;;;;10250093;28;869;-69
2023/01/15 07:07:25;;;;;;;;;;;17.70;48.40;;;;;;10248759;28;1278;-69
2023/01/15 07:12:21;;;;;;;;;;;17.70;48.70;;;;;;10248911;28;1910;-69
2023/01/15 07:17:16;;;;;;;;;;;17.70;49.00;;;;;;10249908;28;861;-70
2023/01/15 07:22:11;;;;;;;;;;;17.70;48.80;;;;;;10248737;28;912;-69
2023/01/15 07:27:07;;;;;;;;;;;17.70;48.80;;;;;;10248047;28;932;-71
2023/01/15 07:32:02;;;;;;;;;;;17.70;48.90;;;;;;10247740;28;880;-68
2023/01/15 07:36:58;;;;;;;;;;;17.70;49.10;;;;;;10248608;28;1898;-70
2023/01/15 07:52:21;;;;;;;;;;;17.80;48.70;;;;;;10247935;28;1977;-70
2023/01/15 07:57:17;;;;;;;;;;;17.80;48.70;;;;;;10247394;28;854;-70
2023/01/15 08:02:12;;;;;;;;;;;17.80;48.60;;;;;;10246928;28;1046;-71
2023/01/15 08:07:07;;;;;;;;;;;17.80;48.60;;;;;;10247673;28;884;-70
2023/01/15 08:17:17;;;;;;;;;;;17.80;48.50;;;;;;10246932;28;601;-71
2023/01/15 08:22:12;;;;;;;;;;;17.80;48.60;;;;;;10246002;28;909;-71
2023/01/15 08:27:07;;;;;;;;;;;17.80;48.90;;;;;;10246272;28;1047;-70
2023/01/15 08:32:03;;;;;;;;;;;17.80;48.90;;;;;;10246030;28;855;-71
2023/01/15 08:37:01;;;;;;;;;;;17.80;48.90;;;;;;10246284;28;1953;-70
2023/01/15 08:41:56;;;;;;;;;;;17.80;49.10;;;;;;10245105;28;842;-71
2023/01/15 08:46:51;;;;;;;;;;;17.90;49.20;;;;;;10245782;28;786;-71
2023/01/15 08:51:50;;;;;;;;;;;17.80;49.40;;;;;;10245604;28;790;-71
2023/01/15 08:56:45;;;;;;;;;;;17.90;49.60;;;;;;10245184;28;1906;-74
2023/01/15 09:01:41;;;;;;;;;;;17.80;49.20;;;;;;10245215;28;859;-74
2023/01/15 09:06:36;;;;;;;;;;;17.60;48.90;;;;;;10245133;28;806;-74
2023/01/15 09:11:31;;;;;;;;;;;17.50;49.70;;;;;;10246276;28;869;-73
2023/01/15 09:16:29;;;;;;;;;;;17.40;49.10;;;;;;10244667;28;1951;-72
2023/01/15 09:21:25;;;;;;;;;;;17.40;48.90;;;;;;10245304;28;940;-71
2023/01/15 09:26:20;;;;;;;;;;;17.30;48.50;;;;;;10244149;28;779;-72
2023/01/15 09:31:15;;;;;;;;;;;17.30;48.40;;;;;;10244997;28;981;-72
2023/01/15 09:36:11;;;;;;;;;;;17.30;48.80;;;;;;10244015;28;1902;-73
2023/01/15 09:41:06;;;;;;;;;;;17.20;48.40;;;;;;10244202;28;928;-67
2023/01/15 09:46:01;;;;;;;;;;;17.40;48.40;;;;;;10241097;28;998;-67
2023/01/15 09:50:57;;;;;;;;;;;17.60;48.80;;;;;;10245944;28;869;-67
2023/01/15 09:55:53;;;;;;;;;;;17.70;49.30;;;;;;10253075;28;1910;-72
2023/01/15 10:00:49;;;;;;;;;;;17.70;49.70;;;;;;10251642;28;866;-73
2023/01/15 10:05:44;;;;;;;;;;;17.50;49.50;;;;;;10252008;28;898;-72
2023/01/15 10:10:39;;;;;;;;;;;17.40;49.30;;;;;;10251840;28;778;-71
2023/01/15 10:15:35;;;;;;;;;;;17.30;49.70;;;;;;10250966;28;1894;-74
2023/01/15 10:20:30;;;;;;;;;;;17.30;48.60;;;;;;10252061;28;787;-73
2023/01/15 10:25:25;;;;;;;;;;;17.20;48.60;;;;;;10251227;28;772;-73
2023/01/15 10:30:21;;;;;;;;;;;17.20;48.80;;;;;;10251702;28;909;-73
2023/01/15 10:35:16;;;;;;;;;;;17.20;48.40;;;;;;10251316;28;1988;-73
2023/01/15 10:40:13;;;;;;;;;;;17.20;48.70;;;;;;10250608;28;884;-73
2023/01/15 10:45:09;;;;;;;;;;;17.20;48.00;;;;;;10250822;28;881;-73
2023/01/15 10:50:04;;;;;;;;;;;17.20;48.10;;;;;;10250468;28;841;-75
2023/01/15 10:55:00;;;;;;;;;;;17.20;47.80;;;;;;10249993;28;1985;-75
2023/01/15 10:59:55;;;;;;;;;;;17.20;47.70;;;;;;10249349;28;1168;-73
2023/01/15 11:04:50;;;;;;;;;;;17.20;47.80;;;;;;10248729;28;1055;-73
2023/01/15 11:09:46;;;;;;;;;;;17.20;47.70;;;;;;10249636;28;869;-75
2023/01/15 11:19:55;;;;;;;;;;;17.20;47.70;;;;;;10248613;28;613;-76
2023/01/15 11:24:51;;;;;;;;;;;17.20;47.30;;;;;;10248724;28;791;-74
2023/01/15 11:29:46;;;;;;;;;;;17.10;47.30;;;;;;10249099;28;821;-74
2023/01/15 11:34:42;;;;;;;;;;;17.20;47.50;;;;;;10248246;28;1879;-74
2023/01/15 11:39:37;;;;;;;;;;;17.20;47.80;;;;;;10248808;28;859;-73
2023/01/15 11:55:02;;;;;;;;;;;17.10;47.00;;;;;;10247078;28;1965;-73
2023/01/15 11:59:58;;;;;;;;;;;17.00;47.10;;;;;;10247587;28;884;-72
2023/01/15 12:04:54;;;;;;;;;;;17.00;47.10;;;;;;10247023;28;1563;-73
2023/01/15 12:09:49;;;;;;;;;;;17.00;46.70;;;;;;10247089;28;941;-73
2023/01/15 12:14:45;;;;;;;;;;;17.00;47.50;;;;;;10246540;28;1906;-73
2023/01/15 12:19:40;;;;;;;;;;;17.00;46.80;;;;;;10246903;28;810;-72
2023/01/15 12:24:35;;;;;;;;;;;17.00;46.50;;;;;;10246761;28;758;-73
2023/01/15 12:29:31;;;;;;;;;;;17.00;46.30;;;;;;10246603;28;764;-72
2023/01/15 12:34:26;;;;;;;;;;;17.00;46.30;;;;;;10246178;28;1993;-73
2023/01/15 12:39:22;;;;;;;;;;;17.10;46.20;;;;;;10246437;28;775;-73
2023/01/15 12:49:31;;;;;;;;;;;17.00;46.10;;;;;;10246497;28;588;-73
2023/01/15 12:54:26;;;;;;;;;;;17.00;46.30;;;;;;10245522;28;1965;-73
2023/01/15 12:59:22;;;;;;;;;;;17.00;46.40;;;;;;10244923;28;1066;-73
2023/01/15 13:04:17;;;;;;;;;;;17.00;46.10;;;;;;10245321;28;781;-72
2023/01/15 13:09:13;;;;;;;;;;;17.00;45.80;;;;;;10245160;28;843;-72
2023/01/15 13:14:08;;;;;;;;;;;17.00;46.10;;;;;;10245501;28;1910;-72
2023/01/15 13:19:03;;;;;;;;;;;17.00;46.00;;;;;;10245537;28;1007;-73
2023/01/15 13:23:59;;;;;;;;;;;17.00;45.80;;;;;;10245258;28;780;-72
2023/01/15 13:28:54;;;;;;;;;;;17.00;45.80;;;;;;10244510;28;819;-73
2023/01/15 13:33:50;;;;;;;;;;;17.00;46.10;;;;;;10244287;28;1919;-75
2023/01/15 13:38:45;;;;;;;;;;;17.00;45.50;;;;;;10244163;28;905;-71
2023/01/15 13:43:40;;;;;;;;;;;17.00;45.30;;;;;;10244704;28;815;-71
2023/01/15 13:48:36;;;;;;;;;;;17.30;46.20;;;;;;10244073;28;872;-74
2023/01/15 13:53:31;;;;;;;;;;;17.10;45.80;;;;;;10243924;28;1898;-84
2023/01/15 13:58:27;;;;;;;;;;;16.90;44.80;;;;;;10243936;28;881;-79
2023/01/15 14:03:22;;;;;;;;;;;15.80;43.70;;;;;;10244384;28;1010;-70
2023/01/15 14:08:17;;;;;;;;;;;16.20;46.80;;;;;;10243713;28;969;-75
2023/01/15 14:13:13;;;;;;;;;;;15.80;45.20;;;;;;10244148;28;1913;-77
2023/01/15 14:18:08;;;;;;;;;;;15.10;42.90;;;;;;10243397;28;955;-75
2023/01/15 14:23:03;;;;;;;;;;;15.50;44.90;;;;;;10243500;28;930;-75
2023/01/15 14:28:00;;;;;;;;;;;16.10;43.80;;;;;;10241008;28;975;-75
2023/01/15 14:32:56;;;;;;;;;;;16.30;43.30;;;;;;10242793;28;1922;-76
2023/01/15 14:37:51;;;;;;;;;;;16.50;43.20;;;;;;10247637;28;956;-76
2023/01/15 14:43:03;;;;;;;;;;;15.80;43.80;;;;;;10250738;28;871;-76
2023/01/15 14:47:59;;;;;;;;;;;16.00;44.40;;;;;;10250457;28;882;-77
2023/01/15 14:52:54;;;;;;;;;;;16.10;42.90;;;;;;10249674;28;1906;-77
2023/01/15 14:57:49;;;;;;;;;;;16.10;45.30;;;;;;10250045;28;765;-77
2023/01/15 15:02:45;;;;;;;;;;;16.30;44.70;;;;;;10249956;28;801;-70
2023/01/15 15:07:40;;;;;;;;;;;16.50;44.20;;;;;;10249148;28;1109;-77
2023/01/15 15:12:36;;;;;;;;;;;16.60;44.60;;;;;;10249455;28;1906;-77
2023/01/15 15:17:31;;;;;;;;;;;16.60;44.20;;;;;;10248794;28;847;-76
2023/01/15 15:22:28;;;;;;;;;;;16.60;44.20;;;;;;10249148;28;867;-77
2023/01/15 15:27:23;;;;;;;;;;;16.70;44.30;;;;;;10249036;28;766;-77
2023/01/15 15:32:19;;;;;;;;;;;16.70;44.40;;;;;;10248667;28;1171;-77
2023/01/15 15:37:14;;;;;;;;;;;16.70;44.00;;;;;;10248571;28;1910;-78
2023/01/15 15:52:38;;;;;;;;;;;16.70;44.00;;;;;;10247389;28;1965;-77
2023/01/15 15:57:33;;;;;;;;;;;16.70;44.20;;;;;;10247823;28;747;-77
2023/01/15 16:02:30;;;;;;;;;;;16.70;44.40;;;;;;10247724;28;782;-77
2023/01/15 16:07:32;;;;;;;;;;;16.80;44.00;;;;;;10247717;28;850;-77
2023/01/15 16:12:27;;;;;;;;;;;16.70;44.10;;;;;;10247795;28;1906;-77
2023/01/15 16:17:24;;;;;;;;;;;16.70;44.30;;;;;;10247184;28;854;-78
2023/01/15 16:22:20;;;;;;;;;;;16.70;44.10;;;;;;10246981;28;872;-77
2023/01/15 16:27:16;;;;;;;;;;;16.80;44.20;;;;;;10247476;28;827;-77
2023/01/15 16:32:11;;;;;;;;;;;16.80;44.20;;;;;;10246481;28;1008;-71
2023/01/15 16:37:06;;;;;;;;;;;16.80;44.20;;;;;;10245523;28;1906;-77
2023/01/15 16:42:02;;;;;;;;;;;17.10;45.70;;;;;;10244651;28;1144;-79
2023/01/15 16:46:57;;;;;;;;;;;17.00;45.70;;;;;;10246385;28;939;-73
2023/01/15 16:51:53;;;;;;;;;;;15.90;43.60;;;;;;10246839;28;785;-77
2023/01/15 16:56:48;;;;;;;;;;;15.80;43.90;;;;;;10245829;28;1902;-74
2023/01/15 17:01:45;;;;;;;;;;;15.80;43.60;;;;;;10244855;28;933;-75
2023/01/15 17:06:40;;;;;;;;;;;15.90;43.90;;;;;;10245213;28;988;-84
2023/01/15 17:11:35;;;;;;;;;;;16.20;44.20;;;;;;10245165;28;814;-77
2023/01/15 17:16:31;;;;;;;;;;;16.50;44.40;;;;;;10245485;28;1898;-81
2023/01/15 17:21:28;;;;;;;;;;;16.60;44.10;;;;;;10244293;28;896;-86
2023/01/15 17:26:23;;;;;;;;;;;16.60;44.10;;;;;;10244571;28;926;-77
2023/01/15 17:31:19;;;;;;;;;;;16.70;43.50;;;;;;10244587;28;804;-79
2023/01/15 17:36:14;;;;;;;;;;;16.80;44.30;;;;;;10243658;28;1958;-78
2023/01/15 17:41:10;;;;;;;;;;;16.80;44.20;;;;;;10244879;28;770;-78
2023/01/15 17:46:05;;;;;;;;;;;16.80;44.10;;;;;;10244189;28;760;-78
2023/01/15 17:51:00;;;;;;;;;;;16.70;44.30;;;;;;10244121;28;769;-78
2023/01/15 18:06:24;;;;;;;;;;;16.80;44.20;;;;;;10243369;28;597;-78
2023/01/15 18:11:19;;;;;;;;;;;16.80;44.10;;;;;;10245192;28;846;-78
2023/01/15 18:16:15;;;;;;;;;;;16.80;44.30;;;;;;10251723;28;2033;-77
2023/01/15 18:21:11;;;;;;;;;;;16.80;44.10;;;;;;10251506;28;927;-78
2023/01/15 18:26:06;;;;;;;;;;;16.80;44.10;;;;;;10250842;28;1065;-77
2023/01/15 18:31:02;;;;;;;;;;;16.80;44.30;;;;;;10251150;28;1087;-77
2023/01/15 18:35:57;;;;;;;;;;;16.80;44.30;;;;;;10251369;28;1974;-77
2023/01/15 18:40:52;;;;;;;;;;;16.80;44.30;;;;;;10250855;28;821;-76
2023/01/15 18:51:02;;;;;;;;;;;16.80;44.40;;;;;;10249979;28;632;-77
2023/01/15 18:55:57;;;;;;;;;;;16.80;44.40;;;;;;10250208;28;1973;-77
2023/01/15 19:00:52;;;;;;;;;;;16.80;44.40;;;;;;10250659;28;817;-77
2023/01/15 19:05:48;;;;;;;;;;;16.90;44.70;;;;;;10249774;28;859;-77
2023/01/15 19:10:43;;;;;;;;;;;16.90;44.60;;;;;;10249713;28;775;-77
2023/01/15 19:20:52;;;;;;;;;;;16.90;44.80;;;;;;10248834;28;573;-79
2023/01/15 19:25:48;;;;;;;;;;;16.90;44.70;;;;;;10248164;28;913;-80
2023/01/15 19:31:34;;;;;;;;;;;16.90;44.80;;;;;;10249613;28;758;-80
2023/01/15 19:35:59;;;;;;;;;;;16.90;44.80;;;;;;10248699;28;1969;-80
2023/01/15 19:50:17;;;;;;;;;;;16.90;44.80;;;;;;10249156;28;845;-76
2023/01/15 19:52:33;;;;;;;;;;;16.90;44.80;;;;;;10247706;28;581;-77
2023/01/15 19:56:39;;;;;;;;;;;16.90;44.80;;;;;;10248092;28;1949;-77
2023/01/15 20:01:34;;;;;;;;;;;16.90;45.00;;;;;;10248671;28;1008;-77
2023/01/15 20:06:30;;;;;;;;;;;16.90;45.00;;;;;;10248222;28;805;-75
2023/01/15 20:13:47;;;;;;;;;;;17.00;45.10;;;;;;10246724;28;960;-75
2023/01/15 20:16:40;;;;;;;;;;;17.00;45.10;;;;;;10246548;28;1907;-75
2023/01/15 20:21:36;;;;;;;;;;;17.00;45.10;;;;;;10247649;28;818;-75
2023/01/15 20:26:31;;;;;;;;;;;17.00;45.10;;;;;;10246953;28;854;-76
2023/01/15 20:31:27;;;;;;;;;;;17.00;45.20;;;;;;10246552;28;954;-75
2023/01/15 20:36:22;;;;;;;;;;;17.00;45.20;;;;;;10245586;28;1969;-76
2023/01/15 20:46:31;;;;;;;;;;;17.00;45.20;;;;;;10245680;28;620;-76
2023/01/15 20:51:27;;;;;;;;;;;16.90;45.10;;;;;;10245948;28;761;-75
2023/01/15 20:56:22;;;;;;;;;;;16.90;45.20;;;;;;10246568;28;1964;-76
2023/01/15 21:01:18;;;;;;;;;;;16.90;45.30;;;;;;10245461;28;749;-76
2023/01/15 21:06:13;;;;;;;;;;;16.90;45.30;;;;;;10246007;28;834;-76
2023/01/15 21:11:09;;;;;;;;;;;16.90;45.40;;;;;;10245019;28;863;-76
2023/01/15 21:16:05;;;;;;;;;;;16.90;45.40;;;;;;10244922;28;1898;-76
2023/01/15 21:21:00;;;;;;;;;;;16.90;45.40;;;;;;10244831;28;982;-76
2023/01/15 21:25:55;;;;;;;;;;;16.90;45.30;;;;;;10244712;28;859;-76
2023/01/15 21:30:51;;;;;;;;;;;16.90;45.30;;;;;;10244697;28;949;-77
2023/01/15 21:35:46;;;;;;;;;;;16.80;45.30;;;;;;10244581;28;1983;-77
2023/01/15 21:40:42;;;;;;;;;;;16.90;45.50;;;;;;10245079;28;952;-74
2023/01/15 21:45:37;;;;;;;;;;;16.90;45.40;;;;;;10243953;28;856;-80
2023/01/15 21:50:34;;;;;;;;;;;16.90;45.50;;;;;;10244112;28;829;-78
2023/01/15 21:55:29;;;;;;;;;;;16.90;45.40;;;;;;10243936;28;1965;-78
2023/01/15 22:00:25;;;;;;;;;;;16.90;45.50;;;;;;10243997;28;810;-77
2023/01/15 22:05:20;;;;;;;;;;;16.80;45.40;;;;;;10244449;28;767;-78
2023/01/15 22:10:15;;;;;;;;;;;16.80;45.50;;;;;;10244370;28;919;-78
2023/01/15 22:15:11;;;;;;;;;;;16.90;45.50;;;;;;10243580;28;1903;-78
2023/01/15 22:20:07;;;;;;;;;;;16.80;45.60;;;;;;10244400;28;912;-78
2023/01/15 22:25:04;;;;;;;;;;;16.80;45.50;;;;;;10244643;28;852;-78
2023/01/15 22:29:59;;;;;;;;;;;16.80;45.60;;;;;;10243325;28;993;-78
2023/01/15 22:34:55;;;;;;;;;;;16.80;45.60;;;;;;10243688;28;1973;-78
2023/01/15 22:39:51;;;;;;;;;;;16.90;45.60;;;;;;10243876;28;833;-78
2023/01/15 22:44:47;;;;;;;;;;;16.90;45.70;;;;;;10243826;28;847;-78
2023/01/15 22:49:43;;;;;;;;;;;16.80;45.70;;;;;;10242959;28;830;-78
2023/01/15 22:54:38;;;;;;;;;;;16.80;45.80;;;;;;10244034;28;1962;-78
2023/01/15 22:59:33;;;;;;;;;;;16.80;45.80;;;;;;10244942;28;904;-78
2023/01/15 23:04:29;;;;;;;;;;;16.80;46.40;;;;;;10251347;28;915;-78
2023/01/15 23:09:24;;;;;;;;;;;16.80;45.90;;;;;;10249853;28;794;-78
2023/01/15 23:14:20;;;;;;;;;;;16.80;45.90;;;;;;10250146;28;1918;-78
2023/01/15 23:19:15;;;;;;;;;;;16.80;45.90;;;;;;10249476;28;871;-78
2023/01/15 23:24:11;;;;;;;;;;;16.80;46.60;;;;;;10249863;28;864;-79
2023/01/15 23:29:06;;;;;;;;;;;16.80;46.10;;;;;;10249093;28;885;-78
2023/01/15 23:34:01;;;;;;;;;;;16.80;46.10;;;;;;10249438;28;1910;-78
2023/01/15 23:38:57;;;;;;;;;;;16.80;46.00;;;;;;10248846;28;872;-78
2023/01/15 23:49:06;;;;;;;;;;;16.80;46.10;;;;;;10247824;28;664;-78
2023/01/15 23:54:02;;;;;;;;;;;16.90;46.20;;;;;;10248712;28;1979;-78
2023/01/15 23:58:57;;;;;;;;;;;16.90;46.10;;;;;;10249409;28;833;-78
